createdAt,value
2023-03-24T00:03:10.896Z,11.65
2023-03-24T00:08:17.136Z,11.35
2023-03-24T00:13:20.346Z,11.61
2023-03-24T00:18:25.936Z,11.62
2023-03-24T00:23:32.631Z,11.59
2023-03-24T00:28:37.644Z,11.62
2023-03-24T00:33:41.354Z,11.62
2023-03-24T00:38:47.307Z,11.65
2023-03-24T00:43:53.975Z,11.66
2023-03-24T00:49:02.733Z,11.68
2023-03-24T00:54:09.427Z,11.70
2023-03-24T00:59:14.061Z,11.70
2023-03-24T01:04:17.292Z,11.71
2023-03-24T01:09:22.063Z,11.72
2023-03-24T01:14:25.332Z,11.75
2023-03-24T01:19:29.284Z,11.75
2023-03-24T01:24:33.858Z,11.74
2023-03-24T01:29:37.359Z,11.80
2023-03-24T01:34:40.603Z,11.81
2023-03-24T01:39:45.130Z,11.84
2023-03-24T01:44:54.292Z,11.75
2023-03-24T01:50:03.119Z,11.86
2023-03-24T01:55:12.819Z,11.91
2023-03-24T02:00:19.556Z,11.93
2023-03-24T02:05:46.322Z,11.94
2023-03-24T02:10:56.284Z,11.96
2023-03-24T02:16:15.099Z,11.95
2023-03-24T02:21:56.650Z,11.73
2023-03-24T02:27:15.818Z,11.44
2023-03-24T02:33:09.781Z,11.28
2023-03-24T02:38:29.063Z,11.16
2023-03-24T02:43:45.896Z,11.07
2023-03-24T02:49:02.964Z,11.00
2023-03-24T02:54:12.140Z,10.93
2023-03-24T02:59:23.316Z,10.89
2023-03-24T03:04:34.477Z,10.77
2023-03-24T03:09:41.218Z,10.67
2023-03-24T03:14:51.847Z,10.65
2023-03-24T03:19:58.154Z,10.58
2023-03-24T03:25:03.913Z,10.48
2023-03-24T03:30:14.678Z,10.46
2023-03-24T03:35:23.926Z,10.36
2023-03-24T03:40:32.483Z,10.31
2023-03-24T03:45:45.071Z,10.27
2023-03-24T03:50:57.421Z,10.29
2023-03-24T03:56:10.554Z,10.25
2023-03-24T04:01:26.620Z,10.21
2023-03-24T04:07:08.314Z,9.98
2023-03-24T04:12:35.846Z,9.88
2023-03-24T04:18:20.906Z,9.67
2023-03-24T04:23:42.104Z,9.63
2023-03-24T04:28:58.663Z,9.53
2023-03-24T04:34:09.945Z,9.52
2023-03-24T04:39:17.843Z,9.43
2023-03-24T04:44:27.908Z,9.33
2023-03-24T04:49:53.227Z,9.27
2023-03-24T04:54:57.466Z,9.23
2023-03-24T05:00:02.918Z,9.32
2023-03-24T05:05:09.971Z,9.33
2023-03-24T05:10:21.822Z,9.34
2023-03-24T05:15:30.814Z,9.28
2023-03-24T05:20:55.142Z,9.17
2023-03-24T05:25:58.674Z,9.16
2023-03-24T05:31:05.101Z,9.08
2023-03-24T05:36:22.510Z,9.09
2023-03-24T05:41:34.644Z,9.15
2023-03-24T05:46:38.207Z,9.29
2023-03-24T05:51:43.100Z,9.43
2023-03-24T05:56:46.789Z,9.49
2023-03-24T06:02:09.491Z,9.51
2023-03-24T06:07:26.607Z,9.57
2023-03-24T06:12:31.624Z,9.72
2023-03-24T06:17:38.502Z,9.69
2023-03-24T06:22:54.493Z,9.89
2023-03-24T06:28:06.124Z,9.96
2023-03-24T06:33:11.422Z,10.02
2023-03-24T06:38:16.764Z,10.07
2023-03-24T06:43:21.323Z,10.19
2023-03-24T06:48:26.445Z,10.17
2023-03-24T06:53:38.866Z,10.21
2023-03-24T06:58:42.101Z,10.40
2023-03-24T07:03:52.009Z,10.59
2023-03-24T07:09:15.175Z,10.61
2023-03-24T07:14:18.381Z,10.71
2023-03-24T07:19:23.213Z,10.82
2023-03-24T07:24:39.521Z,11.09
2023-03-24T07:30:03.433Z,11.30
2023-03-24T07:35:17.022Z,11.35
2023-03-24T07:40:22.272Z,11.41
2023-03-24T07:45:26.103Z,11.49
2023-03-24T07:50:30.066Z,11.34
2023-03-24T07:55:38.060Z,11.34
2023-03-24T08:00:55.581Z,11.22
2023-03-24T08:06:12.124Z,11.07
2023-03-24T08:11:20.983Z,11.03
2023-03-24T08:16:24.921Z,11.26
2023-03-24T08:21:28.104Z,11.40
2023-03-24T08:26:37.988Z,11.63
2023-03-24T08:31:41.206Z,11.78
2023-03-24T08:36:44.210Z,11.80
2023-03-24T08:41:50.319Z,12.03
2023-03-24T08:47:02.086Z,12.66
2023-03-24T08:52:05.726Z,12.85
2023-03-24T08:57:10.208Z,12.62
2023-03-24T09:02:16.478Z,12.88
2023-03-24T09:07:19.531Z,12.93
2023-03-24T09:12:24.066Z,12.79
2023-03-24T09:17:27.629Z,13.11
2023-03-24T09:22:30.856Z,13.60
2023-03-24T09:27:35.357Z,13.90
2023-03-24T09:32:38.460Z,14.15
2023-03-24T09:37:43.364Z,14.06
2023-03-24T09:42:56.620Z,14.03
2023-03-24T09:48:04.687Z,14.05
2023-03-24T09:53:16.858Z,13.81
2023-03-24T09:58:21.813Z,13.79
2023-03-24T10:03:25.365Z,13.80
2023-03-24T10:08:33.696Z,13.69
2023-03-24T10:13:55.381Z,13.97
2023-03-24T10:19:04.542Z,14.63
2023-03-24T10:24:15.618Z,14.63
2023-03-24T10:29:26.033Z,14.43
2023-03-24T10:34:35.167Z,13.99
2023-03-24T10:39:44.898Z,13.29
2023-03-24T10:44:54.579Z,13.38
2023-03-24T10:50:14.307Z,14.12
2023-03-24T10:55:23.626Z,13.72
2023-03-24T11:00:31.734Z,13.52
2023-03-24T11:05:37.983Z,13.29
2023-03-24T11:10:41.570Z,12.77
2023-03-24T11:15:55.412Z,12.51
2023-03-24T11:21:04.254Z,12.61
2023-03-24T11:26:11.170Z,12.36
2023-03-24T11:36:47.313Z,12.40
2023-03-24T11:42:02.504Z,12.91
2023-03-24T11:47:13.575Z,13.12
2023-03-24T11:52:23.757Z,13.59
2023-03-24T11:57:48.971Z,14.12
2023-03-24T12:03:25.020Z,14.77
2023-03-24T12:08:40.042Z,14.41
2023-03-24T12:13:45.518Z,14.55
2023-03-24T12:19:23.074Z,14.65
2023-03-24T12:24:41.677Z,13.95
2023-03-24T12:30:00.817Z,13.18
2023-03-24T12:35:45.856Z,12.54
2023-03-24T12:41:05.395Z,12.05
2023-03-24T12:46:29.561Z,12.18
2023-03-24T12:51:48.281Z,12.23
2023-03-24T12:56:59.277Z,12.82
2023-03-24T13:02:10.962Z,13.48
2023-03-24T13:07:20.072Z,13.19
2023-03-24T13:12:25.977Z,13.07
2023-03-24T13:17:34.362Z,12.17
2023-03-24T13:22:39.515Z,12.12
2023-03-24T13:27:51.016Z,11.79
2023-03-24T13:32:56.670Z,11.76
2023-03-24T13:38:07.649Z,11.47
2023-03-24T13:43:15.489Z,10.95
2023-03-24T13:48:34.932Z,10.79
2023-03-24T13:53:45.010Z,10.74
2023-03-24T13:59:04.661Z,11.12
2023-03-24T14:04:45.498Z,11.43
2023-03-24T14:10:01.136Z,11.49
2023-03-24T14:15:15.762Z,11.69
2023-03-24T14:20:29.465Z,11.91
2023-03-24T14:25:45.710Z,12.27
2023-03-24T14:31:13.491Z,12.52
2023-03-24T14:36:23.283Z,12.76
2023-03-24T14:41:32.016Z,12.91
2023-03-24T14:46:38.615Z,13.31
2023-03-24T14:51:44.816Z,13.54
2023-03-24T14:56:54.102Z,13.77
2023-03-24T15:02:05.428Z,13.84
2023-03-24T15:07:14.950Z,13.86
2023-03-24T15:12:21.172Z,13.86
2023-03-24T15:23:10.095Z,13.60
2023-03-24T15:28:21.635Z,13.99
2023-03-24T15:33:26.171Z,14.11
2023-03-24T15:38:30.892Z,14.09
2023-03-24T15:43:43.360Z,14.00
2023-03-24T15:48:48.711Z,13.79
2023-03-24T15:53:59.228Z,13.79
2023-03-24T15:59:16.308Z,13.90
2023-03-24T16:04:23.420Z,13.64
2023-03-24T16:09:28.129Z,13.62
2023-03-24T16:14:33.320Z,13.76
2023-03-24T16:19:37.893Z,13.91
2023-03-24T16:24:41.066Z,14.04
2023-03-24T16:29:45.478Z,14.17
2023-03-24T16:34:51.326Z,14.14
2023-03-24T16:39:54.828Z,14.12
2023-03-24T16:44:59.484Z,13.88
2023-03-24T16:50:02.642Z,13.84
2023-03-24T16:55:06.725Z,13.59
2023-03-24T17:00:13.063Z,13.29
2023-03-24T17:05:24.391Z,13.29
2023-03-24T17:10:28.680Z,13.30
2023-03-24T17:15:36.565Z,13.27
2023-03-24T17:20:40.757Z,13.24
2023-03-24T17:25:43.788Z,13.17
2023-03-24T17:30:50.530Z,13.02
2023-03-24T17:35:55.080Z,12.95
2023-03-24T17:41:02.401Z,12.74
2023-03-24T17:46:07.067Z,12.44
2023-03-24T17:51:10.169Z,12.19
2023-03-24T17:56:13.620Z,12.11
2023-03-24T18:01:21.341Z,11.91
2023-03-24T18:06:24.532Z,11.75
2023-03-24T18:11:28.032Z,11.69
2023-03-24T18:16:35.558Z,11.65
2023-03-24T18:21:39.934Z,11.54
2023-03-24T18:26:43.305Z,11.41
2023-03-24T18:31:47.847Z,11.32
2023-03-24T18:36:53.665Z,11.25
2023-03-24T18:41:59.626Z,11.16
2023-03-24T18:47:04.446Z,11.02
2023-03-24T18:52:09.614Z,10.90
2023-03-24T18:57:13.312Z,10.81
2023-03-24T19:02:18.277Z,10.75
2023-03-24T19:07:24.722Z,10.65
2023-03-24T19:12:28.142Z,10.68
2023-03-24T19:17:33.321Z,10.79
2023-03-24T19:22:36.700Z,10.81
2023-03-24T19:27:39.823Z,10.65
2023-03-24T19:32:44.425Z,10.40
2023-03-24T19:37:53.782Z,10.34
2023-03-24T19:42:56.904Z,10.21
2023-03-24T19:48:03.455Z,10.16
2023-03-24T19:53:06.527Z,10.07
2023-03-24T19:58:09.964Z,10.04
2023-03-24T20:03:14.648Z,10.06
2023-03-24T20:08:19.315Z,9.99
2023-03-24T20:13:24.160Z,9.97
2023-03-24T20:18:28.699Z,9.93
2023-03-24T20:23:32.228Z,9.93
2023-03-24T20:28:35.486Z,10.00
2023-03-24T20:33:40.412Z,9.94
2023-03-24T20:38:43.915Z,9.88
2023-03-24T20:43:47.149Z,10.00
2023-03-24T20:48:53.752Z,9.82
2023-03-24T20:53:57.020Z,9.95
2023-03-24T20:59:01.122Z,9.95
2023-03-24T21:04:09.406Z,9.92
2023-03-24T21:09:13.555Z,9.94
2023-03-24T21:14:16.638Z,9.98
2023-03-24T21:19:22.932Z,10.06
2023-03-24T21:24:28.658Z,10.09
2023-03-24T21:29:31.925Z,10.20
2023-03-24T21:34:36.790Z,10.20
2023-03-24T21:39:39.932Z,10.23
2023-03-24T21:44:43.002Z,10.26
2023-03-24T21:49:52.560Z,10.25
2023-03-24T21:54:58.152Z,10.26
2023-03-24T22:00:02.028Z,10.23
2023-03-24T22:05:17.230Z,10.19
2023-03-24T22:10:23.046Z,10.19
2023-03-24T22:15:26.240Z,10.19
2023-03-24T22:20:32.001Z,10.15
2023-03-24T22:25:35.541Z,10.08
2023-03-24T22:30:41.986Z,10.06
2023-03-24T22:35:47.856Z,10.06
2023-03-24T22:40:52.023Z,10.00
2023-03-24T22:45:55.560Z,9.99
2023-03-24T22:51:00.069Z,9.89
2023-03-24T22:56:03.674Z,9.91
2023-03-24T23:01:07.921Z,9.87
2023-03-24T23:06:13.356Z,9.86
2023-03-24T23:11:16.817Z,9.84
2023-03-24T23:16:21.438Z,9.79
2023-03-24T23:21:26.222Z,9.69
2023-03-24T23:26:30.336Z,9.67
2023-03-24T23:31:33.531Z,9.69
2023-03-24T23:36:39.832Z,9.73
2023-03-24T23:41:43.151Z,9.66
2023-03-24T23:46:46.311Z,9.63
2023-03-24T23:51:51.502Z,9.54
2023-03-24T23:56:54.979Z,9.47
